sensor_id;sensor_type;location;lat;lon;timestamp;P1;durP1;ratioP1;P2;durP2;ratioP2
34876;SDS011;21086;44.780;17.194;2023-02-15T00:00:05;49.90;;;26.90;;
34876;SDS011;21086;44.780;17.194;2023-02-15T00:02:36;35.85;;;21.52;;
34876;SDS011;21086;44.780;17.194;2023-02-15T00:05:04;41.80;;;20.45;;
34876;SDS011;21086;44.780;17.194;2023-02-15T00:07:32;52.95;;;25.80;;
34876;SDS011;21086;44.780;17.194;2023-02-15T00:09:59;95.65;;;39.25;;
34876;SDS011;21086;44.780;17.194;2023-02-15T00:12:26;90.63;;;37.08;;
34876;SDS011;21086;44.780;17.194;2023-02-15T00:14:54;101.63;;;46.67;;
34876;SDS011;21086;44.780;17.194;2023-02-15T00:17:21;60.10;;;29.10;;
34876;SDS011;21086;44.780;17.194;2023-02-15T00:19:47;67.85;;;32.88;;
34876;SDS011;21086;44.780;17.194;2023-02-15T00:22:15;90.78;;;41.97;;
34876;SDS011;21086;44.780;17.194;2023-02-15T00:24:42;71.20;;;36.33;;
34876;SDS011;21086;44.780;17.194;2023-02-15T00:27:09;63.83;;;33.28;;
34876;SDS011;21086;44.780;17.194;2023-02-15T00:29:36;50.30;;;28.42;;
34876;SDS011;21086;44.780;17.194;2023-02-15T00:32:04;57.53;;;29.95;;
34876;SDS011;21086;44.780;17.194;2023-02-15T00:34:31;50.15;;;28.17;;
34876;SDS011;21086;44.780;17.194;2023-02-15T00:36:58;43.17;;;23.88;;
34876;SDS011;21086;44.780;17.194;2023-02-15T00:39:26;35.72;;;22.25;;
34876;SDS011;21086;44.780;17.194;2023-02-15T00:41:55;35.00;;;20.80;;
34876;SDS011;21086;44.780;17.194;2023-02-15T00:44:23;31.20;;;21.00;;
34876;SDS011;21086;44.780;17.194;2023-02-15T00:46:49;32.17;;;21.90;;
34876;SDS011;21086;44.780;17.194;2023-02-15T00:49:17;32.15;;;22.10;;
34876;SDS011;21086;44.780;17.194;2023-02-15T00:51:44;27.73;;;18.17;;
34876;SDS011;21086;44.780;17.194;2023-02-15T00:54:11;27.15;;;16.98;;
34876;SDS011;21086;44.780;17.194;2023-02-15T00:56:38;25.10;;;15.15;;
34876;SDS011;21086;44.780;17.194;2023-02-15T00:59:06;26.08;;;16.30;;
34876;SDS011;21086;44.780;17.194;2023-02-15T01:01:34;23.80;;;16.50;;
34876;SDS011;21086;44.780;17.194;2023-02-15T01:04:02;17.38;;;11.63;;
34876;SDS011;21086;44.780;17.194;2023-02-15T01:06:29;18.63;;;11.98;;
34876;SDS011;21086;44.780;17.194;2023-02-15T01:08:57;19.95;;;13.80;;
34876;SDS011;21086;44.780;17.194;2023-02-15T01:11:24;19.67;;;13.68;;
34876;SDS011;21086;44.780;17.194;2023-02-15T01:13:53;18.77;;;12.55;;
34876;SDS011;21086;44.780;17.194;2023-02-15T01:16:25;17.65;;;11.70;;
34876;SDS011;21086;44.780;17.194;2023-02-15T01:18:54;11.98;;;9.02;;
34876;SDS011;21086;44.780;17.194;2023-02-15T01:21:22;14.82;;;9.38;;
34876;SDS011;21086;44.780;17.194;2023-02-15T01:23:51;13.65;;;8.85;;
34876;SDS011;21086;44.780;17.194;2023-02-15T01:26:18;13.43;;;9.20;;
34876;SDS011;21086;44.780;17.194;2023-02-15T01:28:46;11.45;;;8.60;;
34876;SDS011;21086;44.780;17.194;2023-02-15T01:31:15;10.65;;;7.63;;
34876;SDS011;21086;44.780;17.194;2023-02-15T01:33:44;10.88;;;7.82;;
34876;SDS011;21086;44.780;17.194;2023-02-15T01:36:12;12.52;;;8.60;;
34876;SDS011;21086;44.780;17.194;2023-02-15T01:38:41;14.35;;;8.95;;
34876;SDS011;21086;44.780;17.194;2023-02-15T01:41:09;16.90;;;11.95;;
34876;SDS011;21086;44.780;17.194;2023-02-15T01:43:54;20.73;;;13.88;;
34876;SDS011;21086;44.780;17.194;2023-02-15T01:46:28;25.40;;;16.98;;
34876;SDS011;21086;44.780;17.194;2023-02-15T01:51:39;20.35;;;13.35;;
34876;SDS011;21086;44.780;17.194;2023-02-15T01:56:51;14.82;;;10.48;;
34876;SDS011;21086;44.780;17.194;2023-02-15T01:59:21;16.15;;;11.60;;
34876;SDS011;21086;44.780;17.194;2023-02-15T02:01:51;12.60;;;10.18;;
34876;SDS011;21086;44.780;17.194;2023-02-15T02:07:07;20.35;;;13.68;;
34876;SDS011;21086;44.780;17.194;2023-02-15T02:09:36;20.95;;;14.10;;
34876;SDS011;21086;44.780;17.194;2023-02-15T02:12:07;20.27;;;13.70;;
34876;SDS011;21086;44.780;17.194;2023-02-15T02:14:35;20.75;;;13.40;;
34876;SDS011;21086;44.780;17.194;2023-02-15T02:19:54;22.60;;;16.88;;
34876;SDS011;21086;44.780;17.194;2023-02-15T02:36:52;28.60;;;19.08;;
34876;SDS011;21086;44.780;17.194;2023-02-15T02:41:58;21.17;;;15.88;;
34876;SDS011;21086;44.780;17.194;2023-02-15T02:47:21;24.63;;;17.00;;
34876;SDS011;21086;44.780;17.194;2023-02-15T02:50:00;20.92;;;13.65;;
34876;SDS011;21086;44.780;17.194;2023-02-15T02:55:05;19.05;;;13.70;;
34876;SDS011;21086;44.780;17.194;2023-02-15T02:57:36;16.88;;;12.82;;
34876;SDS011;21086;44.780;17.194;2023-02-15T03:00:08;15.77;;;11.85;;
34876;SDS011;21086;44.780;17.194;2023-02-15T03:02:37;13.18;;;10.65;;
34876;SDS011;21086;44.780;17.194;2023-02-15T03:05:09;13.50;;;9.65;;
34876;SDS011;21086;44.780;17.194;2023-02-15T03:07:42;14.25;;;9.32;;
34876;SDS011;21086;44.780;17.194;2023-02-15T03:10:16;12.95;;;8.48;;
34876;SDS011;21086;44.780;17.194;2023-02-15T03:12:46;11.40;;;8.73;;
34876;SDS011;21086;44.780;17.194;2023-02-15T03:15:25;11.35;;;8.63;;
34876;SDS011;21086;44.780;17.194;2023-02-15T03:18:17;10.65;;;8.43;;
34876;SDS011;21086;44.780;17.194;2023-02-15T03:20:48;10.32;;;8.25;;
34876;SDS011;21086;44.780;17.194;2023-02-15T03:23:17;9.75;;;7.18;;
34876;SDS011;21086;44.780;17.194;2023-02-15T03:25:50;10.30;;;7.60;;
34876;SDS011;21086;44.780;17.194;2023-02-15T03:28:24;10.18;;;8.27;;
34876;SDS011;21086;44.780;17.194;2023-02-15T03:30:58;11.25;;;8.25;;
34876;SDS011;21086;44.780;17.194;2023-02-15T03:33:28;10.70;;;7.45;;
34876;SDS011;21086;44.780;17.194;2023-02-15T03:38:53;11.75;;;7.70;;
34876;SDS011;21086;44.780;17.194;2023-02-15T03:41:20;11.32;;;8.23;;
34876;SDS011;21086;44.780;17.194;2023-02-15T03:43:53;10.00;;;7.30;;
34876;SDS011;21086;44.780;17.194;2023-02-15T03:52:00;9.93;;;7.25;;
34876;SDS011;21086;44.780;17.194;2023-02-15T03:54:31;9.85;;;7.07;;
34876;SDS011;21086;44.780;17.194;2023-02-15T03:57:30;8.23;;;6.18;;
34876;SDS011;21086;44.780;17.194;2023-02-15T04:03:05;10.38;;;7.88;;
34876;SDS011;21086;44.780;17.194;2023-02-15T04:05:52;10.68;;;7.22;;
34876;SDS011;21086;44.780;17.194;2023-02-15T04:08:20;10.45;;;7.55;;
34876;SDS011;21086;44.780;17.194;2023-02-15T04:11:07;12.57;;;8.05;;
34876;SDS011;21086;44.780;17.194;2023-02-15T04:13:34;9.65;;;7.18;;
34876;SDS011;21086;44.780;17.194;2023-02-15T04:16:02;11.52;;;7.47;;
34876;SDS011;21086;44.780;17.194;2023-02-15T04:18:32;10.30;;;7.55;;
34876;SDS011;21086;44.780;17.194;2023-02-15T04:21:26;12.32;;;9.02;;
34876;SDS011;21086;44.780;17.194;2023-02-15T04:24:13;10.38;;;7.57;;
34876;SDS011;21086;44.780;17.194;2023-02-15T04:27:00;9.95;;;7.15;;
34876;SDS011;21086;44.780;17.194;2023-02-15T04:29:27;12.68;;;7.65;;
34876;SDS011;21086;44.780;17.194;2023-02-15T04:31:55;11.55;;;7.72;;
34876;SDS011;21086;44.780;17.194;2023-02-15T04:34:24;13.45;;;7.45;;
34876;SDS011;21086;44.780;17.194;2023-02-15T04:36:52;9.40;;;7.35;;
34876;SDS011;21086;44.780;17.194;2023-02-15T04:39:19;12.95;;;7.65;;
34876;SDS011;21086;44.780;17.194;2023-02-15T04:41:46;14.68;;;9.13;;
34876;SDS011;21086;44.780;17.194;2023-02-15T04:44:15;19.92;;;12.55;;
34876;SDS011;21086;44.780;17.194;2023-02-15T04:46:42;18.05;;;12.70;;
34876;SDS011;21086;44.780;17.194;2023-02-15T04:49:10;12.88;;;9.48;;
34876;SDS011;21086;44.780;17.194;2023-02-15T04:51:37;11.40;;;8.65;;
34876;SDS011;21086;44.780;17.194;2023-02-15T04:54:04;8.48;;;6.47;;
34876;SDS011;21086;44.780;17.194;2023-02-15T04:56:31;11.07;;;7.65;;
34876;SDS011;21086;44.780;17.194;2023-02-15T04:59:00;18.60;;;12.68;;
34876;SDS011;21086;44.780;17.194;2023-02-15T05:01:28;21.77;;;13.85;;
34876;SDS011;21086;44.780;17.194;2023-02-15T05:03:55;17.25;;;12.63;;
34876;SDS011;21086;44.780;17.194;2023-02-15T05:06:22;26.27;;;17.20;;
34876;SDS011;21086;44.780;17.194;2023-02-15T05:08:49;34.47;;;22.42;;
34876;SDS011;21086;44.780;17.194;2023-02-15T05:11:16;27.50;;;18.00;;
34876;SDS011;21086;44.780;17.194;2023-02-15T05:13:43;26.05;;;15.65;;
34876;SDS011;21086;44.780;17.194;2023-02-15T05:16:11;21.05;;;13.82;;
34876;SDS011;21086;44.780;17.194;2023-02-15T05:18:38;24.90;;;16.83;;
34876;SDS011;21086;44.780;17.194;2023-02-15T05:21:05;21.73;;;15.00;;
34876;SDS011;21086;44.780;17.194;2023-02-15T05:23:35;17.33;;;12.05;;
34876;SDS011;21086;44.780;17.194;2023-02-15T05:26:04;17.33;;;12.23;;
34876;SDS011;21086;44.780;17.194;2023-02-15T05:28:50;15.27;;;10.02;;
34876;SDS011;21086;44.780;17.194;2023-02-15T05:31:18;13.02;;;9.85;;
34876;SDS011;21086;44.780;17.194;2023-02-15T05:33:46;14.50;;;9.88;;
34876;SDS011;21086;44.780;17.194;2023-02-15T05:36:13;16.65;;;11.60;;
34876;SDS011;21086;44.780;17.194;2023-02-15T05:38:44;17.23;;;12.75;;
34876;SDS011;21086;44.780;17.194;2023-02-15T05:41:11;16.10;;;11.02;;
34876;SDS011;21086;44.780;17.194;2023-02-15T05:43:38;21.33;;;12.55;;
34876;SDS011;21086;44.780;17.194;2023-02-15T05:46:06;14.40;;;11.13;;
34876;SDS011;21086;44.780;17.194;2023-02-15T05:48:33;16.05;;;11.15;;
34876;SDS011;21086;44.780;17.194;2023-02-15T05:53:33;24.90;;;12.55;;
34876;SDS011;21086;44.780;17.194;2023-02-15T05:56:01;15.00;;;10.63;;
34876;SDS011;21086;44.780;17.194;2023-02-15T05:58:30;15.15;;;10.75;;
34876;SDS011;21086;44.780;17.194;2023-02-15T06:00:59;17.83;;;11.70;;
34876;SDS011;21086;44.780;17.194;2023-02-15T06:03:33;16.30;;;10.40;;
34876;SDS011;21086;44.780;17.194;2023-02-15T06:06:00;23.35;;;16.20;;
34876;SDS011;21086;44.780;17.194;2023-02-15T06:08:27;25.85;;;15.35;;
34876;SDS011;21086;44.780;17.194;2023-02-15T06:10:54;24.90;;;16.60;;
34876;SDS011;21086;44.780;17.194;2023-02-15T06:13:21;35.03;;;23.35;;
34876;SDS011;21086;44.780;17.194;2023-02-15T06:15:49;37.78;;;21.58;;
34876;SDS011;21086;44.780;17.194;2023-02-15T06:18:16;33.97;;;22.75;;
34876;SDS011;21086;44.780;17.194;2023-02-15T06:20:45;33.85;;;18.33;;
34876;SDS011;21086;44.780;17.194;2023-02-15T06:23:12;41.85;;;24.48;;
34876;SDS011;21086;44.780;17.194;2023-02-15T06:25:39;32.33;;;21.67;;
34876;SDS011;21086;44.780;17.194;2023-02-15T06:28:07;38.22;;;25.23;;
34876;SDS011;21086;44.780;17.194;2023-02-15T06:30:34;35.20;;;22.75;;
34876;SDS011;21086;44.780;17.194;2023-02-15T06:33:01;35.67;;;22.45;;
34876;SDS011;21086;44.780;17.194;2023-02-15T06:35:28;37.50;;;23.80;;
34876;SDS011;21086;44.780;17.194;2023-02-15T06:37:55;37.60;;;24.45;;
34876;SDS011;21086;44.780;17.194;2023-02-15T06:40:22;39.97;;;27.65;;
34876;SDS011;21086;44.780;17.194;2023-02-15T06:42:49;49.88;;;28.80;;
34876;SDS011;21086;44.780;17.194;2023-02-15T06:45:16;52.08;;;34.63;;
34876;SDS011;21086;44.780;17.194;2023-02-15T06:47:43;61.90;;;39.75;;
34876;SDS011;21086;44.780;17.194;2023-02-15T06:50:10;61.08;;;34.33;;
34876;SDS011;21086;44.780;17.194;2023-02-15T06:52:37;35.75;;;22.70;;
34876;SDS011;21086;44.780;17.194;2023-02-15T06:55:05;36.53;;;24.30;;
34876;SDS011;21086;44.780;17.194;2023-02-15T06:57:32;40.55;;;27.42;;
34876;SDS011;21086;44.780;17.194;2023-02-15T06:59:59;44.30;;;29.00;;
34876;SDS011;21086;44.780;17.194;2023-02-15T07:02:26;33.17;;;22.63;;
34876;SDS011;21086;44.780;17.194;2023-02-15T07:04:53;36.05;;;22.30;;
34876;SDS011;21086;44.780;17.194;2023-02-15T07:07:20;45.40;;;29.25;;
34876;SDS011;21086;44.780;17.194;2023-02-15T07:09:48;39.90;;;27.45;;
34876;SDS011;21086;44.780;17.194;2023-02-15T07:12:15;52.88;;;35.42;;
34876;SDS011;21086;44.780;17.194;2023-02-15T07:15:01;39.60;;;25.63;;
34876;SDS011;21086;44.780;17.194;2023-02-15T07:17:33;53.33;;;33.10;;
34876;SDS011;21086;44.780;17.194;2023-02-15T07:20:05;38.25;;;26.75;;
34876;SDS011;21086;44.780;17.194;2023-02-15T07:22:34;43.15;;;27.75;;
34876;SDS011;21086;44.780;17.194;2023-02-15T07:25:03;29.20;;;22.73;;
34876;SDS011;21086;44.780;17.194;2023-02-15T07:27:31;32.67;;;21.08;;
34876;SDS011;21086;44.780;17.194;2023-02-15T07:30:01;21.13;;;14.20;;
34876;SDS011;21086;44.780;17.194;2023-02-15T07:32:31;20.90;;;16.33;;
34876;SDS011;21086;44.780;17.194;2023-02-15T07:34:59;21.80;;;15.65;;
34876;SDS011;21086;44.780;17.194;2023-02-15T07:37:26;24.88;;;18.55;;
34876;SDS011;21086;44.780;17.194;2023-02-15T07:39:54;23.73;;;17.67;;
34876;SDS011;21086;44.780;17.194;2023-02-15T07:42:21;25.67;;;17.30;;
34876;SDS011;21086;44.780;17.194;2023-02-15T07:44:49;24.08;;;17.63;;
34876;SDS011;21086;44.780;17.194;2023-02-15T07:47:16;25.60;;;17.75;;
34876;SDS011;21086;44.780;17.194;2023-02-15T07:49:44;24.30;;;18.13;;
34876;SDS011;21086;44.780;17.194;2023-02-15T07:52:11;22.98;;;17.58;;
34876;SDS011;21086;44.780;17.194;2023-02-15T07:54:38;23.85;;;18.13;;
34876;SDS011;21086;44.780;17.194;2023-02-15T07:57:05;23.17;;;17.92;;
34876;SDS011;21086;44.780;17.194;2023-02-15T07:59:32;25.95;;;18.85;;
34876;SDS011;21086;44.780;17.194;2023-02-15T08:01:59;28.45;;;21.35;;
34876;SDS011;21086;44.780;17.194;2023-02-15T08:04:26;25.33;;;19.25;;
34876;SDS011;21086;44.780;17.194;2023-02-15T08:06:53;27.23;;;20.40;;
34876;SDS011;21086;44.780;17.194;2023-02-15T08:09:21;20.40;;;17.35;;
34876;SDS011;21086;44.780;17.194;2023-02-15T08:11:49;22.35;;;17.77;;
34876;SDS011;21086;44.780;17.194;2023-02-15T08:14:19;21.08;;;17.48;;
34876;SDS011;21086;44.780;17.194;2023-02-15T08:16:49;21.75;;;15.77;;
34876;SDS011;21086;44.780;17.194;2023-02-15T08:19:18;21.88;;;17.42;;
34876;SDS011;21086;44.780;17.194;2023-02-15T08:21:48;22.75;;;18.17;;
34876;SDS011;21086;44.780;17.194;2023-02-15T08:24:21;17.02;;;12.60;;
34876;SDS011;21086;44.780;17.194;2023-02-15T08:26:49;16.20;;;13.23;;
34876;SDS011;21086;44.780;17.194;2023-02-15T08:29:18;16.58;;;12.27;;
34876;SDS011;21086;44.780;17.194;2023-02-15T08:31:52;15.45;;;13.80;;
34876;SDS011;21086;44.780;17.194;2023-02-15T08:34:21;20.63;;;15.65;;
34876;SDS011;21086;44.780;17.194;2023-02-15T08:36:49;18.30;;;16.23;;
34876;SDS011;21086;44.780;17.194;2023-02-15T08:39:15;17.02;;;12.35;;
34876;SDS011;21086;44.780;17.194;2023-02-15T08:41:43;14.60;;;11.88;;
34876;SDS011;21086;44.780;17.194;2023-02-15T08:44:13;14.50;;;11.68;;
34876;SDS011;21086;44.780;17.194;2023-02-15T08:46:42;14.70;;;11.80;;
34876;SDS011;21086;44.780;17.194;2023-02-15T08:49:11;15.15;;;11.13;;
34876;SDS011;21086;44.780;17.194;2023-02-15T08:51:41;22.23;;;13.75;;
34876;SDS011;21086;44.780;17.194;2023-02-15T08:54:18;15.55;;;11.55;;
34876;SDS011;21086;44.780;17.194;2023-02-15T08:56:46;14.30;;;9.88;;
34876;SDS011;21086;44.780;17.194;2023-02-15T08:59:15;11.15;;;8.90;;
34876;SDS011;21086;44.780;17.194;2023-02-15T09:01:44;12.18;;;9.50;;
34876;SDS011;21086;44.780;17.194;2023-02-15T09:04:13;11.07;;;8.52;;
34876;SDS011;21086;44.780;17.194;2023-02-15T09:06:43;7.95;;;6.00;;
34876;SDS011;21086;44.780;17.194;2023-02-15T09:09:14;9.95;;;8.35;;
34876;SDS011;21086;44.780;17.194;2023-02-15T09:11:43;10.18;;;7.40;;
34876;SDS011;21086;44.780;17.194;2023-02-15T09:14:12;8.18;;;6.40;;
34876;SDS011;21086;44.780;17.194;2023-02-15T09:16:41;9.23;;;7.03;;
34876;SDS011;21086;44.780;17.194;2023-02-15T09:19:12;27.77;;;8.98;;
34876;SDS011;21086;44.780;17.194;2023-02-15T09:21:40;13.73;;;7.10;;
34876;SDS011;21086;44.780;17.194;2023-02-15T09:24:08;10.00;;;7.82;;
34876;SDS011;21086;44.780;17.194;2023-02-15T09:26:38;6.55;;;5.53;;
34876;SDS011;21086;44.780;17.194;2023-02-15T09:29:07;8.60;;;6.32;;
34876;SDS011;21086;44.780;17.194;2023-02-15T09:31:39;8.43;;;6.72;;
34876;SDS011;21086;44.780;17.194;2023-02-15T09:34:11;8.93;;;6.55;;
34876;SDS011;21086;44.780;17.194;2023-02-15T09:36:40;14.15;;;6.40;;
34876;SDS011;21086;44.780;17.194;2023-02-15T09:54:36;10.35;;;6.78;;
34876;SDS011;21086;44.780;17.194;2023-02-15T09:56:51;8.07;;;5.35;;
34876;SDS011;21086;44.780;17.194;2023-02-15T09:59:27;6.90;;;5.60;;
34876;SDS011;21086;44.780;17.194;2023-02-15T10:10:21;7.05;;;5.10;;
34876;SDS011;21086;44.780;17.194;2023-02-15T10:18:43;7.43;;;6.53;;
34876;SDS011;21086;44.780;17.194;2023-02-15T10:21:23;8.88;;;7.28;;
34876;SDS011;21086;44.780;17.194;2023-02-15T10:26:47;10.13;;;8.35;;
34876;SDS011;21086;44.780;17.194;2023-02-15T10:34:51;12.07;;;10.77;;
34876;SDS011;21086;44.780;17.194;2023-02-15T10:42:49;12.25;;;9.73;;
34876;SDS011;21086;44.780;17.194;2023-02-15T11:02:36;40.13;;;21.67;;
34876;SDS011;21086;44.780;17.194;2023-02-15T11:05:20;22.02;;;14.23;;
34876;SDS011;21086;44.780;17.194;2023-02-15T11:07:56;27.35;;;16.55;;
34876;SDS011;21086;44.780;17.194;2023-02-15T11:13:18;27.23;;;16.15;;
34876;SDS011;21086;44.780;17.194;2023-02-15T11:15:53;9.07;;;6.97;;
34876;SDS011;21086;44.780;17.194;2023-02-15T11:18:27;9.13;;;7.45;;
34876;SDS011;21086;44.780;17.194;2023-02-15T11:21:01;9.93;;;7.28;;
34876;SDS011;21086;44.780;17.194;2023-02-15T11:23:39;14.32;;;9.85;;
34876;SDS011;21086;44.780;17.194;2023-02-15T11:26:19;8.63;;;7.55;;
34876;SDS011;21086;44.780;17.194;2023-02-15T11:29:13;10.80;;;8.48;;
34876;SDS011;21086;44.780;17.194;2023-02-15T11:31:46;8.45;;;7.18;;
34876;SDS011;21086;44.780;17.194;2023-02-15T11:36:54;17.77;;;13.20;;
34876;SDS011;21086;44.780;17.194;2023-02-15T11:39:25;10.57;;;6.90;;
34876;SDS011;21086;44.780;17.194;2023-02-15T11:41:55;7.88;;;6.32;;
34876;SDS011;21086;44.780;17.194;2023-02-15T11:47:00;7.10;;;5.97;;
34876;SDS011;21086;44.780;17.194;2023-02-15T11:49:32;6.53;;;5.93;;
34876;SDS011;21086;44.780;17.194;2023-02-15T11:52:02;6.03;;;5.43;;
34876;SDS011;21086;44.780;17.194;2023-02-15T11:54:35;6.93;;;6.22;;
34876;SDS011;21086;44.780;17.194;2023-02-15T11:57:17;9.90;;;8.35;;
34876;SDS011;21086;44.780;17.194;2023-02-15T11:59:50;6.20;;;5.60;;
34876;SDS011;21086;44.780;17.194;2023-02-15T12:02:22;6.93;;;6.22;;
34876;SDS011;21086;44.780;17.194;2023-02-15T12:05:00;6.88;;;6.28;;
34876;SDS011;21086;44.780;17.194;2023-02-15T12:10:20;6.95;;;6.15;;
34876;SDS011;21086;44.780;17.194;2023-02-15T12:15:38;5.70;;;5.20;;
34876;SDS011;21086;44.780;17.194;2023-02-15T12:21:30;9.23;;;5.88;;
34876;SDS011;21086;44.780;17.194;2023-02-15T12:24:02;5.88;;;5.28;;
34876;SDS011;21086;44.780;17.194;2023-02-15T12:26:38;5.95;;;4.90;;
34876;SDS011;21086;44.780;17.194;2023-02-15T12:29:07;6.55;;;5.35;;
34876;SDS011;21086;44.780;17.194;2023-02-15T12:31:43;7.57;;;6.88;;
34876;SDS011;21086;44.780;17.194;2023-02-15T12:34:18;9.18;;;5.20;;
34876;SDS011;21086;44.780;17.194;2023-02-15T12:36:53;5.72;;;5.22;;
34876;SDS011;21086;44.780;17.194;2023-02-15T12:39:25;5.97;;;5.38;;
34876;SDS011;21086;44.780;17.194;2023-02-15T12:47:26;6.25;;;5.03;;
34876;SDS011;21086;44.780;17.194;2023-02-15T12:52:46;6.22;;;5.63;;
34876;SDS011;21086;44.780;17.194;2023-02-15T12:55:22;6.88;;;4.82;;
34876;SDS011;21086;44.780;17.194;2023-02-15T12:58:12;5.88;;;5.28;;
34876;SDS011;21086;44.780;17.194;2023-02-15T13:00:46;7.28;;;6.55;;
34876;SDS011;21086;44.780;17.194;2023-02-15T13:03:20;6.70;;;6.00;;
34876;SDS011;21086;44.780;17.194;2023-02-15T13:05:53;6.55;;;5.95;;
34876;SDS011;21086;44.780;17.194;2023-02-15T13:13:36;8.25;;;5.53;;
34876;SDS011;21086;44.780;17.194;2023-02-15T13:16:16;8.02;;;6.80;;
34876;SDS011;21086;44.780;17.194;2023-02-15T13:18:51;7.38;;;6.22;;
34876;SDS011;21086;44.780;17.194;2023-02-15T13:21:23;7.05;;;6.35;;
34876;SDS011;21086;44.780;17.194;2023-02-15T13:24:00;8.10;;;6.85;;
34876;SDS011;21086;44.780;17.194;2023-02-15T13:26:31;7.60;;;6.10;;
34876;SDS011;21086;44.780;17.194;2023-02-15T13:29:05;7.68;;;6.97;;
34876;SDS011;21086;44.780;17.194;2023-02-15T13:31:38;7.10;;;6.40;;
34876;SDS011;21086;44.780;17.194;2023-02-15T13:34:10;8.75;;;6.15;;
34876;SDS011;21086;44.780;17.194;2023-02-15T13:36:47;6.75;;;6.05;;
34876;SDS011;21086;44.780;17.194;2023-02-15T13:39:24;10.77;;;6.53;;
34876;SDS011;21086;44.780;17.194;2023-02-15T13:41:58;7.63;;;6.75;;
34876;SDS011;21086;44.780;17.194;2023-02-15T13:47:36;6.38;;;5.78;;
34876;SDS011;21086;44.780;17.194;2023-02-15T13:55:50;8.98;;;6.93;;
34876;SDS011;21086;44.780;17.194;2023-02-15T14:04:08;8.27;;;7.45;;
34876;SDS011;21086;44.780;17.194;2023-02-15T14:17:56;13.77;;;11.90;;
34876;SDS011;21086;44.780;17.194;2023-02-15T14:23:08;11.27;;;10.18;;
34876;SDS011;21086;44.780;17.194;2023-02-15T14:25:57;27.88;;;17.30;;
34876;SDS011;21086;44.780;17.194;2023-02-15T14:28:36;22.30;;;17.38;;
34876;SDS011;21086;44.780;17.194;2023-02-15T14:31:27;11.45;;;10.25;;
34876;SDS011;21086;44.780;17.194;2023-02-15T14:34:04;10.50;;;9.50;;
34876;SDS011;21086;44.780;17.194;2023-02-15T14:36:30;14.30;;;12.82;;
34876;SDS011;21086;44.780;17.194;2023-02-15T14:41:56;17.85;;;11.82;;
34876;SDS011;21086;44.780;17.194;2023-02-15T14:44:37;10.52;;;9.50;;
34876;SDS011;21086;44.780;17.194;2023-02-15T14:47:19;12.48;;;10.57;;
34876;SDS011;21086;44.780;17.194;2023-02-15T14:49:51;12.10;;;9.40;;
34876;SDS011;21086;44.780;17.194;2023-02-15T14:52:18;11.27;;;10.07;;
34876;SDS011;21086;44.780;17.194;2023-02-15T15:02:19;15.00;;;10.82;;
34876;SDS011;21086;44.780;17.194;2023-02-15T15:12:47;13.98;;;12.65;;
34876;SDS011;21086;44.780;17.194;2023-02-15T15:26:20;12.90;;;11.52;;
34876;SDS011;21086;44.780;17.194;2023-02-15T15:31:25;12.75;;;11.45;;
34876;SDS011;21086;44.780;17.194;2023-02-15T15:42:13;12.90;;;11.57;;
34876;SDS011;21086;44.780;17.194;2023-02-15T15:50:41;16.65;;;14.95;;
34876;SDS011;21086;44.780;17.194;2023-02-15T15:53:20;16.40;;;14.73;;
34876;SDS011;21086;44.780;17.194;2023-02-15T15:55:50;21.85;;;18.48;;
34876;SDS011;21086;44.780;17.194;2023-02-15T15:58:24;23.88;;;21.38;;
34876;SDS011;21086;44.780;17.194;2023-02-15T16:00:52;29.33;;;26.15;;
34876;SDS011;21086;44.780;17.194;2023-02-15T16:03:27;33.60;;;30.30;;
34876;SDS011;21086;44.780;17.194;2023-02-15T16:05:55;30.15;;;27.05;;
34876;SDS011;21086;44.780;17.194;2023-02-15T16:10:56;32.90;;;29.50;;
34876;SDS011;21086;44.780;17.194;2023-02-15T16:13:24;33.42;;;29.95;;
34876;SDS011;21086;44.780;17.194;2023-02-15T16:15:53;32.70;;;29.15;;
34876;SDS011;21086;44.780;17.194;2023-02-15T16:18:23;28.20;;;22.80;;
34876;SDS011;21086;44.780;17.194;2023-02-15T16:28:50;20.75;;;17.95;;
34876;SDS011;21086;44.780;17.194;2023-02-15T16:31:18;22.15;;;16.65;;
34876;SDS011;21086;44.780;17.194;2023-02-15T16:33:46;23.92;;;20.88;;
34876;SDS011;21086;44.780;17.194;2023-02-15T16:36:20;28.25;;;20.65;;
34876;SDS011;21086;44.780;17.194;2023-02-15T16:41:17;19.77;;;16.95;;
34876;SDS011;21086;44.780;17.194;2023-02-15T16:43:51;19.30;;;15.88;;
34876;SDS011;21086;44.780;17.194;2023-02-15T16:46:25;21.35;;;17.50;;
34876;SDS011;21086;44.780;17.194;2023-02-15T16:48:57;26.77;;;19.48;;
34876;SDS011;21086;44.780;17.194;2023-02-15T16:51:31;35.40;;;24.80;;
34876;SDS011;21086;44.780;17.194;2023-02-15T16:54:03;51.45;;;32.38;;
34876;SDS011;21086;44.780;17.194;2023-02-15T16:56:33;70.55;;;43.47;;
34876;SDS011;21086;44.780;17.194;2023-02-15T16:59:02;81.20;;;49.47;;
34876;SDS011;21086;44.780;17.194;2023-02-15T17:01:30;48.00;;;33.42;;
34876;SDS011;21086;44.780;17.194;2023-02-15T17:07:00;27.20;;;21.20;;
34876;SDS011;21086;44.780;17.194;2023-02-15T17:09:27;27.83;;;19.42;;
34876;SDS011;21086;44.780;17.194;2023-02-15T17:11:54;32.60;;;22.10;;
34876;SDS011;21086;44.780;17.194;2023-02-15T17:14:27;25.10;;;17.38;;
34876;SDS011;21086;44.780;17.194;2023-02-15T17:17:01;28.08;;;18.75;;
34876;SDS011;21086;44.780;17.194;2023-02-15T17:19:47;29.45;;;20.67;;
34876;SDS011;21086;44.780;17.194;2023-02-15T17:22:19;31.75;;;20.20;;
34876;SDS011;21086;44.780;17.194;2023-02-15T17:25:00;32.33;;;21.20;;
34876;SDS011;21086;44.780;17.194;2023-02-15T17:27:30;35.75;;;20.98;;
34876;SDS011;21086;44.780;17.194;2023-02-15T17:30:05;37.80;;;21.25;;
34876;SDS011;21086;44.780;17.194;2023-02-15T17:32:52;27.65;;;19.08;;
34876;SDS011;21086;44.780;17.194;2023-02-15T17:35:25;32.45;;;19.77;;
34876;SDS011;21086;44.780;17.194;2023-02-15T17:38:01;45.78;;;28.23;;
34876;SDS011;21086;44.780;17.194;2023-02-15T17:40:54;40.72;;;27.83;;
34876;SDS011;21086;44.780;17.194;2023-02-15T17:43:24;45.70;;;27.30;;
34876;SDS011;21086;44.780;17.194;2023-02-15T17:45:51;41.17;;;25.05;;
34876;SDS011;21086;44.780;17.194;2023-02-15T17:48:20;42.33;;;26.67;;
34876;SDS011;21086;44.780;17.194;2023-02-15T17:50:49;39.75;;;24.40;;
34876;SDS011;21086;44.780;17.194;2023-02-15T17:53:16;62.17;;;35.38;;
34876;SDS011;21086;44.780;17.194;2023-02-15T17:55:44;51.00;;;31.15;;
34876;SDS011;21086;44.780;17.194;2023-02-15T17:58:13;49.75;;;30.17;;
34876;SDS011;21086;44.780;17.194;2023-02-15T18:00:42;54.40;;;31.73;;
34876;SDS011;21086;44.780;17.194;2023-02-15T18:03:49;50.17;;;31.60;;
34876;SDS011;21086;44.780;17.194;2023-02-15T18:06:39;77.15;;;49.05;;
34876;SDS011;21086;44.780;17.194;2023-02-15T18:09:26;69.60;;;46.55;;
34876;SDS011;21086;44.780;17.194;2023-02-15T18:14:58;57.83;;;39.58;;
34876;SDS011;21086;44.780;17.194;2023-02-15T18:19:56;54.20;;;34.80;;
34876;SDS011;21086;44.780;17.194;2023-02-15T18:22:23;66.18;;;46.55;;
34876;SDS011;21086;44.780;17.194;2023-02-15T18:24:50;54.90;;;39.17;;
34876;SDS011;21086;44.780;17.194;2023-02-15T18:27:17;70.70;;;46.40;;
34876;SDS011;21086;44.780;17.194;2023-02-15T18:29:46;62.20;;;37.25;;
34876;SDS011;21086;44.780;17.194;2023-02-15T18:32:16;68.60;;;44.35;;